Radiosonde details



Informationen :

Serial : D26002462
Type : Graw DFM
Frequency : 403.210MHz
Launchsite : Spokane
Nearest town : Saint Maries, US (22.3km)

Altitude (Max) : 35196m at 2026-08-31 07:08:15
Speed (Max) : 126km/h at altitude 11505m

Average speed : 56km/h
Average ascent rate : 4m/s
Average descent rate : -11m/s
Ascent rate (Max) : 10.5m/s
Descent rate (Max): -38.6m/s

First frame :
WB7NNF at 2026-08-31 05:25:13 at altitude 6586m (OG: 6544m)
Last frame :
WB7NNF at 2026-08-31 07:34:41 at altitude 10548m (OG: 10506m)

Flighttime : 2h9m28s
Ascent time : 1h43m2s
Descent time : 26m26s
Uptime : -
Killtimer : -

Distance (Straight line distance): 71km

Distance (Route):


Frames : 233


Measurement :

Temperature : -48.6°C
Humidity : 0%
Pressure : 0hPa


Vertical profile (SkewT) :


Elevation profile :



Receiving stations :


Receiver Frames First received Last received
WB7NNF 233 2026-08-31 05:25:13 2026-08-31 07:34:41

Share per receiver :



All frames :


Receiver Date Latitude Longitude Direction Speed Altitude Climb Temperature Humidity Pressure Voltage Killtimer Uptime BKT XDATA
WB7NNF2026-08-31 07:34:4147.51332-116.59582118°95km/h10548m-8.9m/s-48.6°C0%0hPa0V00:00:0000:00:0000:00:00
WB7NNF2026-08-31 07:34:1947.51559-116.60264118°100km/h10736m-8.7m/s-49.9°C0%0hPa0V00:00:0000:00:0000:00:00
WB7NNF2026-08-31 07:33:5347.51906-116.61089126°100km/h10970m-8.9m/s-51.6°C0%0hPa0V00:00:0000:00:0000:00:00
WB7NNF2026-08-31 07:33:3347.52210-116.61709127°108km/h11149m-9.0m/s-52.8°C0%0hPa0V00:00:0000:00:0000:00:00
WB7NNF2026-08-31 07:33:1247.52532-116.62430124°113km/h11338m-8.8m/s-53.7°C0%0hPa0V00:00:0000:00:0000:00:00
WB7NNF2026-08-31 07:32:5247.52856-116.63201121°119km/h11532m-8.8m/s-54.8°C0%0hPa0V00:00:0000:00:0000:00:00
WB7NNF2026-08-31 07:32:3147.53176-116.64049119°124km/h11724m-9.1m/s-55.9°C0%0hPa0V00:00:0000:00:0000:00:00
WB7NNF2026-08-31 07:32:1047.53466-116.64855120°119km/h11910m-9.2m/s-56.7°C0%0hPa0V00:00:0000:00:0000:00:00
WB7NNF2026-08-31 07:31:4847.53719-116.65718110°108km/h12126m-9.2m/s-56.9°C0%0hPa0V00:00:0000:00:0000:00:00
WB7NNF2026-08-31 07:31:2847.53864-116.66523103°117km/h12317m-9.4m/s-56.1°C0%0hPa0V00:00:0000:00:0000:00:00
WB7NNF2026-08-31 07:31:0747.54026-116.67329110°93km/h12522m-9.6m/s-55.0°C0%0hPa0V00:00:0000:00:0000:00:00
WB7NNF2026-08-31 07:30:4547.54137-116.68042104°91km/h12735m-10.3m/s-53.9°C0%0hPa0V00:00:0000:00:0000:00:00
WB7NNF2026-08-31 07:30:0447.54325-116.69075102°62km/h13148m-10.1m/s-54.7°C0%0hPa0V00:00:0000:00:0000:00:00
WB7NNF2026-08-31 07:29:4047.54419-116.69670103°73km/h13409m-10.6m/s-55.8°C0%0hPa0V00:00:0000:00:0000:00:00
WB7NNF2026-08-31 07:29:1747.54545-116.70273109°69km/h13652m-10.5m/s-55.3°C0%0hPa0V00:00:0000:00:0000:00:00
WB7NNF2026-08-31 07:28:4547.54634-116.7096994°53km/h13989m-11.0m/s-54.7°C0%0hPa0V00:00:0000:00:0000:00:00
WB7NNF2026-08-31 07:28:1647.54600-116.7159387°55km/h14322m-10.4m/s-54.1°C0%0hPa0V00:00:0000:00:0000:00:00
WB7NNF2026-08-31 07:27:5147.54588-116.7206989°51km/h14602m-11.1m/s-55.2°C0%0hPa0V00:00:0000:00:0000:00:00
WB7NNF2026-08-31 07:14:3647.52606-116.76791121°11km/h28613m-38.6m/s-45.0°C0%0hPa0V00:00:0000:00:0000:00:00
WB7NNF2026-08-31 07:08:1547.53809-116.77892114°55km/h35196m3.7m/s-35.7°C0%0hPa0V00:00:0000:00:0000:00:00
WB7NNF2026-08-31 07:07:4747.54034-116.78053127°42km/h35040m5.4m/s-35.7°C0%0hPa0V00:00:0000:00:0000:00:00
WB7NNF2026-08-31 07:07:2547.54221-116.78094152°37km/h34929m6.7m/s-35.9°C0%0hPa0V00:00:0000:00:0000:00:00
WB7NNF2026-08-31 07:07:0347.54484-116.78191199°75km/h34816m1.2m/s-35.9°C0%0hPa0V00:00:0000:00:0000:00:00
WB7NNF2026-08-31 07:06:3447.54876-116.78359183°66km/h34636m1.6m/s-36.1°C0%0hPa0V00:00:0000:00:0000:00:00
WB7NNF2026-08-31 07:06:0847.55079-116.78577172°68km/h34533m1.2m/s-36.3°C0%0hPa0V00:00:0000:00:0000:00:00
WB7NNF2026-08-31 07:05:4847.55258-116.78856135°68km/h34428m5.2m/s-36.8°C0%0hPa0V00:00:0000:00:0000:00:00
WB7NNF2026-08-31 07:05:2747.55396-116.79147128°80km/h34324m6.2m/s-37.8°C0%0hPa0V00:00:0000:00:0000:00:00
WB7NNF2026-08-31 07:05:0647.55561-116.79612144°31km/h34200m8.7m/s-38.3°C0%0hPa0V00:00:0000:00:0000:00:00
WB7NNF2026-08-31 07:04:4047.55688-116.79990142°82km/h34092m0.9m/s-38.1°C0%0hPa0V00:00:0000:00:0000:00:00
WB7NNF2026-08-31 07:04:1447.55714-116.80395122°11km/h33972m1.7m/s-38.3°C0%0hPa0V00:00:0000:00:0000:00:00
WB7NNF2026-08-31 07:03:5447.55705-116.80618136°31km/h33867m7.3m/s-38.7°C0%0hPa0V00:00:0000:00:0000:00:00
WB7NNF2026-08-31 07:03:3247.55669-116.8076993°62km/h33757m6.2m/s-39.0°C0%0hPa0V00:00:0000:00:0000:00:00
WB7NNF2026-08-31 07:03:0747.55657-116.80920190°44km/h33623m0.3m/s-39.6°C0%0hPa0V00:00:0000:00:0000:00:00
WB7NNF2026-08-31 07:02:2847.55718-116.81403149°58km/h33419m3.8m/s-40.7°C0%0hPa0V00:00:0000:00:0000:00:00
WB7NNF2026-08-31 07:02:0747.55696-116.81604114°49km/h33313m1.0m/s-41.6°C0%0hPa0V00:00:0000:00:0000:00:00
WB7NNF2026-08-31 07:01:1247.55625-116.81959116°60km/h33007m8.7m/s-42.8°C0%0hPa0V00:00:0000:00:0000:00:00
WB7NNF2026-08-31 07:00:4847.55564-116.82180249°27km/h32867m5.8m/s-43.2°C0%0hPa0V00:00:0000:00:0000:00:00
WB7NNF2026-08-31 07:00:2647.55508-116.8230773°44km/h32745m9.3m/s-43.0°C0%0hPa0V00:00:0000:00:0000:00:00
WB7NNF2026-08-31 07:00:0047.55385-116.82393193°24km/h32599m5.6m/s-43.4°C0%0hPa0V00:00:0000:00:0000:00:00
WB7NNF2026-08-31 06:59:4047.55312-116.8248752°18km/h32487m4.3m/s-43.7°C0%0hPa0V00:00:0000:00:0000:00:00
WB7NNF2026-08-31 06:59:0547.55033-116.8256542°18km/h32284m10.5m/s-44.2°C0%0hPa0V00:00:0000:00:0000:00:00
WB7NNF2026-08-31 06:58:2447.54917-116.82681143°38km/h32047m2.6m/s-44.5°C0%0hPa0V00:00:0000:00:0000:00:00
WB7NNF2026-08-31 06:57:5947.54905-116.82819121°9km/h31908m5.8m/s-44.7°C0%0hPa0V00:00:0000:00:0000:00:00
WB7NNF2026-08-31 06:57:3947.54873-116.8289469°7km/h31793m7.5m/s-44.6°C0%0hPa0V00:00:0000:00:0000:00:00
WB7NNF2026-08-31 06:57:1047.54751-116.82872237°7km/h31639m2.3m/s-45.3°C0%0hPa0V00:00:0000:00:0000:00:00
WB7NNF2026-08-31 06:55:5847.54486-116.82326254°24km/h31266m6.5m/s-45.7°C0%0hPa0V00:00:0000:00:0000:00:00
WB7NNF2026-08-31 06:55:2747.54609-116.82204142°22km/h31089m5.0m/s-45.2°C0%0hPa0V00:00:0000:00:0000:00:00
WB7NNF2026-08-31 06:53:0347.55114-116.81774173°37km/h30283m4.4m/s-43.1°C0%0hPa0V00:00:0000:00:0000:00:00
WB7NNF2026-08-31 06:52:3747.55189-116.81710161°38km/h30136m5.0m/s-43.1°C0%0hPa0V00:00:0000:00:0000:00:00
WB7NNF2026-08-31 06:52:0347.55314-116.81555139°4km/h29956m6.4m/s-43.6°C0%0hPa0V00:00:0000:00:0000:00:00
WB7NNF2026-08-31 06:51:3547.55374-116.81538137°27km/h29808m4.6m/s-43.7°C0%0hPa0V00:00:0000:00:0000:00:00
WB7NNF2026-08-31 06:51:1147.55423-116.81442213°26km/h29683m6.5m/s-43.4°C0%0hPa0V00:00:0000:00:0000:00:00
WB7NNF2026-08-31 06:50:2547.55557-116.81244255°27km/h29435m1.5m/s-44.2°C0%0hPa0V00:00:0000:00:0000:00:00
WB7NNF2026-08-31 06:49:2647.55939-116.81359106°47km/h29149m4.5m/s-44.6°C0%0hPa0V00:00:0000:00:0000:00:00
WB7NNF2026-08-31 06:48:3447.56121-116.8177568°33km/h28867m5.8m/s-44.9°C0%0hPa0V00:00:0000:00:0000:00:00
WB7NNF2026-08-31 06:48:0747.56090-116.8189195°49km/h28714m4.5m/s-45.2°C0%0hPa0V00:00:0000:00:0000:00:00
WB7NNF2026-08-31 06:47:4047.56037-116.8196985°31km/h28570m3.3m/s-45.4°C0%0hPa0V00:00:0000:00:0000:00:00
WB7NNF2026-08-31 06:47:1547.56068-116.8200759°22km/h28426m4.0m/s-45.9°C0%0hPa0V00:00:0000:00:0000:00:00
WB7NNF2026-08-31 06:46:2947.55994-116.82220311°31km/h28170m3.2m/s-46.6°C0%0hPa0V00:00:0000:00:0000:00:00
WB7NNF2026-08-31 06:45:5347.55888-116.8220863°29km/h27976m5.7m/s-46.7°C0%0hPa0V00:00:0000:00:0000:00:00
WB7NNF2026-08-31 06:45:2147.55861-116.82184140°11km/h27810m5.5m/s-46.7°C0%0hPa0V00:00:0000:00:0000:00:00
WB7NNF2026-08-31 06:40:1347.55476-116.81980297°15km/h26189m5.9m/s-48.5°C0%0hPa0V00:00:0000:00:0000:00:00
WB7NNF2026-08-31 06:39:2947.55539-116.81621196°24km/h25960m6.5m/s-48.4°C0%0hPa0V00:00:0000:00:0000:00:00
WB7NNF2026-08-31 06:39:0347.55643-116.81568160°40km/h25824m4.1m/s-48.9°C0%0hPa0V00:00:0000:00:0000:00:00
WB7NNF2026-08-31 06:38:2747.55710-116.8168795°33km/h25628m4.3m/s-48.3°C0%0hPa0V00:00:0000:00:0000:00:00
WB7NNF2026-08-31 06:37:3147.55552-116.81957343°16km/h25327m4.9m/s-49.7°C0%0hPa0V00:00:0000:00:0000:00:00
WB7NNF2026-08-31 06:36:5647.55342-116.8206320km/h25125m3.3m/s-50.4°C0%0hPa0V00:00:0000:00:0000:00:00
WB7NNF2026-08-31 06:36:3347.55240-116.8206711km/h25022m4.8m/s-50.1°C0%0hPa0V00:00:0000:00:0000:00:00
WB7NNF2026-08-31 06:36:0147.55198-116.81965148°16km/h24855m5.8m/s-50.6°C0%0hPa0V00:00:0000:00:0000:00:00
WB7NNF2026-08-31 06:35:2647.55147-116.81883319°7km/h24679m4.4m/s-50.5°C0%0hPa0V00:00:0000:00:0000:00:00
WB7NNF2026-08-31 06:35:0547.55130-116.81865220°13km/h24576m4.2m/s-50.2°C0%0hPa0V00:00:0000:00:0000:00:00
WB7NNF2026-08-31 06:34:4547.55122-116.8184380°18km/h24468m5.3m/s-50.1°C0%0hPa0V00:00:0000:00:0000:00:00
WB7NNF2026-08-31 06:34:2247.55116-116.81875118°9km/h24362m5.6m/s-49.9°C0%0hPa0V00:00:0000:00:0000:00:00
WB7NNF2026-08-31 06:34:0047.55116-116.8194995°31km/h24252m3.8m/s-49.6°C0%0hPa0V00:00:0000:00:0000:00:00
WB7NNF2026-08-31 06:33:3247.55120-116.82027337°11km/h24111m5.0m/s-50.3°C0%0hPa0V00:00:0000:00:0000:00:00
WB7NNF2026-08-31 06:33:1247.55090-116.8208830°4km/h24004m3.7m/s-50.1°C0%0hPa0V00:00:0000:00:0000:00:00
WB7NNF2026-08-31 06:32:4847.54968-116.8215329°18km/h23882m6.4m/s-50.4°C0%0hPa0V00:00:0000:00:0000:00:00
WB7NNF2026-08-31 06:32:1847.54849-116.82123340°7km/h23735m2.8m/s-51.2°C0%0hPa0V00:00:0000:00:0000:00:00
WB7NNF2026-08-31 06:31:5547.54760-116.8211817°20km/h23618m5.8m/s-51.7°C0%0hPa0V00:00:0000:00:0000:00:00
WB7NNF2026-08-31 06:31:3547.54682-116.82126358°9km/h23513m4.2m/s-51.2°C0%0hPa0V00:00:0000:00:0000:00:00
WB7NNF2026-08-31 06:31:1247.54587-116.82066288°18km/h23399m4.8m/s-51.1°C0%0hPa0V00:00:0000:00:0000:00:00
WB7NNF2026-08-31 06:30:5047.54520-116.81957299°13km/h23294m5.5m/s-51.0°C0%0hPa0V00:00:0000:00:0000:00:00
WB7NNF2026-08-31 06:30:2247.54402-116.81799299°31km/h23152m4.6m/s-51.7°C0%0hPa0V00:00:0000:00:0000:00:00
WB7NNF2026-08-31 06:30:0047.54344-116.81684285°22km/h23045m6.2m/s-51.7°C0%0hPa0V00:00:0000:00:0000:00:00
WB7NNF2026-08-31 06:26:4247.54473-116.81228178°13km/h22087m5.2m/s-53.6°C0%0hPa0V00:00:0000:00:0000:00:00
WB7NNF2026-08-31 06:23:5447.54669-116.8138686°13km/h21294m4.4m/s-52.7°C0%0hPa0V00:00:0000:00:0000:00:00
WB7NNF2026-08-31 06:22:3947.54615-116.8155735°26km/h20950m4.4m/s-53.2°C0%0hPa0V00:00:0000:00:0000:00:00
WB7NNF2026-08-31 06:22:1247.54469-116.81563358°22km/h20832m3.9m/s-53.7°C0%0hPa0V00:00:0000:00:0000:00:00
WB7NNF2026-08-31 06:21:5247.54366-116.8150637km/h20740m3.3m/s-53.6°C0%0hPa0V00:00:0000:00:0000:00:00
WB7NNF2026-08-31 06:21:2847.54240-116.81386276°26km/h20632m3.9m/s-53.3°C0%0hPa0V00:00:0000:00:0000:00:00
WB7NNF2026-08-31 06:21:0747.54210-116.81316327°11km/h20524m5.5m/s-53.3°C0%0hPa0V00:00:0000:00:0000:00:00
WB7NNF2026-08-31 06:20:4547.54216-116.8132569°16km/h20423m4.3m/s-53.1°C0%0hPa0V00:00:0000:00:0000:00:00
WB7NNF2026-08-31 06:20:2247.54231-116.81385131°7km/h20315m5.3m/s-53.0°C0%0hPa0V00:00:0000:00:0000:00:00
WB7NNF2026-08-31 06:20:0247.54222-116.8147078°20km/h20216m4.0m/s-53.1°C0%0hPa0V00:00:0000:00:0000:00:00
WB7NNF2026-08-31 06:19:4147.54195-116.8155764°16km/h20121m4.2m/s-53.6°C0%0hPa0V00:00:0000:00:0000:00:00
WB7NNF2026-08-31 06:19:1947.54175-116.8170158°22km/h20021m3.3m/s-54.0°C0%0hPa0V00:00:0000:00:0000:00:00
WB7NNF2026-08-31 06:18:5747.54137-116.8183946°18km/h19924m4.9m/s-54.5°C0%0hPa0V00:00:0000:00:0000:00:00
WB7NNF2026-08-31 06:17:5247.53891-116.8214244°9km/h19642m5.8m/s-54.7°C0%0hPa0V00:00:0000:00:0000:00:00
WB7NNF2026-08-31 06:16:0547.53525-116.82250325°15km/h19175m4.6m/s0°C0%0hPa0V00:00:0000:00:0000:00:00
WB7NNF2026-08-31 06:15:3547.53424-116.8226935°22km/h19048m3.9m/s-53.9°C0%0hPa0V00:00:0000:00:0000:00:00
WB7NNF2026-08-31 06:15:1347.53365-116.8234549°4km/h18949m3.3m/s-53.4°C0%0hPa0V00:00:0000:00:0000:00:00
WB7NNF2026-08-31 06:14:5047.53314-116.82438109°22km/h18816m4.1m/s-52.7°C0%0hPa0V00:00:0000:00:0000:00:00
WB7NNF2026-08-31 06:14:2347.53287-116.8255492°15km/h18718m3.8m/s-53.0°C0%0hPa0V00:00:0000:00:0000:00:00
WB7NNF2026-08-31 06:14:0047.53279-116.82673108°20km/h18615m5.0m/s-53.3°C0%0hPa0V00:00:0000:00:0000:00:00
WB7NNF2026-08-31 06:13:3947.53282-116.8288990°42km/h18524m4.5m/s-54.0°C0%0hPa0V00:00:0000:00:0000:00:00
WB7NNF2026-08-31 06:13:1347.53232-116.8327466°31km/h18404m4.1m/s-54.0°C0%0hPa0V00:00:0000:00:0000:00:00
WB7NNF2026-08-31 06:12:4947.53153-116.8355552°35km/h18300m4.5m/s-53.5°C0%0hPa0V00:00:0000:00:0000:00:00
WB7NNF2026-08-31 06:12:2847.53052-116.8377761°38km/h18207m4.2m/s-53.7°C0%0hPa0V00:00:0000:00:0000:00:00
WB7NNF2026-08-31 06:12:0647.52909-116.8396039°33km/h18107m4.7m/s-53.0°C0%0hPa0V00:00:0000:00:0000:00:00
WB7NNF2026-08-31 06:11:4547.52807-116.8409974°33km/h18021m4.2m/s-52.5°C0%0hPa0V00:00:0000:00:0000:00:00
WB7NNF2026-08-31 06:11:2247.52740-116.8423079°15km/h17913m5.4m/s-51.8°C0%0hPa0V00:00:0000:00:0000:00:00
WB7NNF2026-08-31 06:10:5547.52705-116.8441898°26km/h17800m3.9m/s-51.6°C0%0hPa0V00:00:0000:00:0000:00:00
WB7NNF2026-08-31 06:10:3547.52664-116.8464365°35km/h17711m2.9m/s-51.4°C0%0hPa0V00:00:0000:00:0000:00:00
WB7NNF2026-08-31 06:10:1447.52604-116.8490267°27km/h17627m4.6m/s-52.0°C0%0hPa0V00:00:0000:00:0000:00:00
WB7NNF2026-08-31 06:09:5347.52509-116.8514560°33km/h17548m5.0m/s-51.8°C0%0hPa0V00:00:0000:00:0000:00:00
WB7NNF2026-08-31 06:09:3347.52419-116.8541865°42km/h17466m4.8m/s-52.4°C0%0hPa0V00:00:0000:00:0000:00:00
WB7NNF2026-08-31 06:09:1247.52296-116.8571263°47km/h17387m2.9m/s-52.8°C0%0hPa0V00:00:0000:00:0000:00:00
WB7NNF2026-08-31 06:08:5247.52171-116.8598465°46km/h17299m4.1m/s-53.8°C0%0hPa0V00:00:0000:00:0000:00:00
WB7NNF2026-08-31 06:08:3147.52040-116.8622347°46km/h17212m4.4m/s-53.6°C0%0hPa0V00:00:0000:00:0000:00:00
WB7NNF2026-08-31 06:08:1147.51910-116.8645853°40km/h17122m5.2m/s-53.3°C0%0hPa0V00:00:0000:00:0000:00:00
WB7NNF2026-08-31 06:07:5047.51793-116.8664952°24km/h17034m4.3m/s-53.2°C0%0hPa0V00:00:0000:00:0000:00:00
WB7NNF2026-08-31 06:07:3047.51684-116.8690659°46km/h16942m3.7m/s-53.1°C0%0hPa0V00:00:0000:00:0000:00:00
WB7NNF2026-08-31 06:07:0947.51582-116.8711834°26km/h16855m3.4m/s-52.6°C0%0hPa0V00:00:0000:00:0000:00:00
WB7NNF2026-08-31 06:06:4947.51490-116.8729653°22km/h16766m4.8m/s-52.6°C0%0hPa0V00:00:0000:00:0000:00:00
WB7NNF2026-08-31 06:06:2847.51445-116.8748686°29km/h16679m3.7m/s-52.6°C0%0hPa0V00:00:0000:00:0000:00:00
WB7NNF2026-08-31 06:06:0847.51394-116.8775861°31km/h16594m5.5m/s-52.9°C0%0hPa0V00:00:0000:00:0000:00:00
WB7NNF2026-08-31 06:05:4547.51294-116.8809054°53km/h16508m3.7m/s-52.8°C0%0hPa0V00:00:0000:00:0000:00:00
WB7NNF2026-08-31 06:05:2547.51162-116.8846071°58km/h16426m3.5m/s-53.9°C0%0hPa0V00:00:0000:00:0000:00:00
WB7NNF2026-08-31 06:05:0447.50996-116.8881457°60km/h16349m4.8m/s-54.0°C0%0hPa0V00:00:0000:00:0000:00:00
WB7NNF2026-08-31 06:04:4447.50819-116.8915256°49km/h16270m4.7m/s-53.8°C0%0hPa0V00:00:0000:00:0000:00:00
WB7NNF2026-08-31 06:04:2347.50690-116.8942362°31km/h16193m3.6m/s-53.9°C0%0hPa0V00:00:0000:00:0000:00:00
WB7NNF2026-08-31 06:03:4247.50547-116.8986171°29km/h16026m3.4m/s-54.9°C0%0hPa0V00:00:0000:00:0000:00:00
WB7NNF2026-08-31 06:03:2147.50458-116.9014171°47km/h15941m3.0m/s-55.1°C0%0hPa0V00:00:0000:00:0000:00:00
WB7NNF2026-08-31 06:03:0147.50406-116.9045673°47km/h15858m4.1m/s-55.3°C0%0hPa0V00:00:0000:00:0000:00:00
WB7NNF2026-08-31 06:02:3747.50347-116.9087180°47km/h15762m3.5m/s-55.7°C0%0hPa0V00:00:0000:00:0000:00:00
WB7NNF2026-08-31 06:02:0347.50224-116.9141982°31km/h15616m4.0m/s-55.4°C0%0hPa0V00:00:0000:00:0000:00:00
WB7NNF2026-08-31 06:01:4147.50188-116.9174191°49km/h15522m2.8m/s-55.6°C0%0hPa0V00:00:0000:00:0000:00:00
WB7NNF2026-08-31 06:01:1547.50100-116.9218176°46km/h15410m4.4m/s-55.5°C0%0hPa0V00:00:0000:00:0000:00:00
WB7NNF2026-08-31 06:00:5447.49973-116.9259461°66km/h15320m4.4m/s-56.2°C0%0hPa0V00:00:0000:00:0000:00:00
WB7NNF2026-08-31 06:00:3347.49840-116.9290846°49km/h15235m3.9m/s-56.7°C0%0hPa0V00:00:0000:00:0000:00:00
WB7NNF2026-08-31 06:00:1347.49733-116.9319365°38km/h15148m5.0m/s-57.0°C0%0hPa0V00:00:0000:00:0000:00:00
WB7NNF2026-08-31 05:59:5147.49670-116.9349278°40km/h15061m3.5m/s-56.8°C0%0hPa0V00:00:0000:00:0000:00:00
WB7NNF2026-08-31 05:59:3047.49610-116.9377471°44km/h14967m5.0m/s-56.2°C0%0hPa0V00:00:0000:00:0000:00:00
WB7NNF2026-08-31 05:59:0947.49565-116.9402580°37km/h14883m4.1m/s-55.5°C0%0hPa0V00:00:0000:00:0000:00:00
WB7NNF2026-08-31 05:58:4947.49542-116.9429092°31km/h14791m3.8m/s-54.8°C0%0hPa0V00:00:0000:00:0000:00:00
WB7NNF2026-08-31 05:58:2847.49531-116.9453692°37km/h14708m4.8m/s-54.8°C0%0hPa0V00:00:0000:00:0000:00:00
WB7NNF2026-08-31 05:58:0847.49528-116.9483088°46km/h14619m4.8m/s-54.1°C0%0hPa0V00:00:0000:00:0000:00:00
WB7NNF2026-08-31 05:57:4747.49518-116.9512991°42km/h14533m4.0m/s-53.8°C0%0hPa0V00:00:0000:00:0000:00:00
WB7NNF2026-08-31 05:57:2747.49523-116.95490105°42km/h14446m3.2m/s-53.4°C0%0hPa0V00:00:0000:00:0000:00:00
WB7NNF2026-08-31 05:57:0647.49530-116.9587392°64km/h14363m4.8m/s-53.2°C0%0hPa0V00:00:0000:00:0000:00:00
WB7NNF2026-08-31 05:56:4647.49538-116.9633096°64km/h14277m3.8m/s-53.2°C0%0hPa0V00:00:0000:00:0000:00:00
WB7NNF2026-08-31 05:56:2547.49544-116.9678989°66km/h14196m3.3m/s-53.1°C0%0hPa0V00:00:0000:00:0000:00:00
WB7NNF2026-08-31 05:56:0547.49547-116.9726291°66km/h14110m4.8m/s-54.0°C0%0hPa0V00:00:0000:00:0000:00:00
WB7NNF2026-08-31 05:55:2247.49592-116.98209100°58km/h13940m4.5m/s-54.1°C0%0hPa0V00:00:0000:00:0000:00:00
WB7NNF2026-08-31 05:55:0147.49610-116.9865697°57km/h13855m4.3m/s0°C0%0hPa0V00:00:0000:00:0000:00:00
WB7NNF2026-08-31 05:54:2447.49754-116.99521111°71km/h13704m4.5m/s-54.3°C0%0hPa0V00:00:0000:00:0000:00:00
WB7NNF2026-08-31 05:53:4847.49955-117.00558107°93km/h13559m4.4m/s-54.4°C0%0hPa0V00:00:0000:00:0000:00:00
WB7NNF2026-08-31 05:53:0747.50158-117.0189697°100km/h13392m4.0m/s-55.3°C0%0hPa0V00:00:0000:00:0000:00:00
WB7NNF2026-08-31 05:52:3847.50253-117.02866102°84km/h13271m4.8m/s-54.8°C0%0hPa0V00:00:0000:00:0000:00:00
WB7NNF2026-08-31 05:52:1747.50323-117.03512102°78km/h13181m4.1m/s-54.3°C0%0hPa0V00:00:0000:00:0000:00:00
WB7NNF2026-08-31 05:51:5647.50411-117.04088106°73km/h13096m4.0m/s-55.0°C0%0hPa0V00:00:0000:00:0000:00:00
WB7NNF2026-08-31 05:51:3647.50521-117.0467194°66km/h13010m3.1m/s-55.0°C0%0hPa0V00:00:0000:00:0000:00:00
WB7NNF2026-08-31 05:51:1547.50638-117.05207105°73km/h12921m3.4m/s-55.1°C0%0hPa0V00:00:0000:00:0000:00:00
WB7NNF2026-08-31 05:50:5547.50781-117.05833107°88km/h12829m4.6m/s-55.7°C0%0hPa0V00:00:0000:00:0000:00:00
WB7NNF2026-08-31 05:50:3447.50888-117.06487105°80km/h12744m4.9m/s-55.8°C0%0hPa0V00:00:0000:00:0000:00:00
WB7NNF2026-08-31 05:49:5347.51113-117.07739108°82km/h12558m5.1m/s-54.8°C0%0hPa0V00:00:0000:00:0000:00:00
WB7NNF2026-08-31 05:49:3347.51262-117.08394106°89km/h12470m4.2m/s-54.4°C0%0hPa0V00:00:0000:00:0000:00:00
WB7NNF2026-08-31 05:49:1247.51419-117.09011115°88km/h12388m4.0m/s-54.8°C0%0hPa0V00:00:0000:00:0000:00:00
WB7NNF2026-08-31 05:48:5247.51602-117.09761112°106km/h12282m3.7m/s-55.1°C0%0hPa0V00:00:0000:00:0000:00:00
WB7NNF2026-08-31 05:48:3147.51757-117.10538109°115km/h12200m3.9m/s-55.7°C0%0hPa0V00:00:0000:00:0000:00:00
WB7NNF2026-08-31 05:48:1147.51925-117.11328109°104km/h12106m3.5m/s-56.2°C0%0hPa0V00:00:0000:00:0000:00:00
WB7NNF2026-08-31 05:47:4947.52158-117.12095119°104km/h12016m4.7m/s-56.7°C0%0hPa0V00:00:0000:00:0000:00:00
WB7NNF2026-08-31 05:47:2947.52430-117.12837119°113km/h11931m4.9m/s-56.7°C0%0hPa0V00:00:0000:00:0000:00:00
WB7NNF2026-08-31 05:47:0947.52728-117.13657114°117km/h11840m2.4m/s-56.2°C0%0hPa0V00:00:0000:00:0000:00:00
WB7NNF2026-08-31 05:46:4847.53019-117.14467116°122km/h11759m4.1m/s-55.8°C0%0hPa0V00:00:0000:00:0000:00:00
WB7NNF2026-08-31 05:46:2847.53325-117.15315123°120km/h11675m4.2m/s-55.5°C0%0hPa0V00:00:0000:00:0000:00:00
WB7NNF2026-08-31 05:46:0747.53622-117.16107122°120km/h11596m4.4m/s-55.2°C0%0hPa0V00:00:0000:00:0000:00:00
WB7NNF2026-08-31 05:45:4447.53976-117.17029122°124km/h11505m2.7m/s-54.9°C0%0hPa0V00:00:0000:00:0000:00:00
WB7NNF2026-08-31 05:45:2447.54308-117.17831122°122km/h11430m3.0m/s-54.9°C0%0hPa0V00:00:0000:00:0000:00:00
WB7NNF2026-08-31 05:45:0247.54652-117.18712121°110km/h11337m3.4m/s-54.3°C0%0hPa0V00:00:0000:00:0000:00:00
WB7NNF2026-08-31 05:44:4047.54936-117.19502120°113km/h11252m3.5m/s-53.8°C0%0hPa0V00:00:0000:00:0000:00:00
WB7NNF2026-08-31 05:44:1947.55192-117.20262117°108km/h11168m4.0m/s-53.1°C0%0hPa0V00:00:0000:00:0000:00:00
WB7NNF2026-08-31 05:43:5947.55425-117.20988119°88km/h11074m3.4m/s-52.4°C0%0hPa0V00:00:0000:00:0000:00:00
WB7NNF2026-08-31 05:43:3947.55632-117.21625121°93km/h10973m4.1m/s-52.0°C0%0hPa0V00:00:0000:00:0000:00:00
WB7NNF2026-08-31 05:43:1847.55885-117.22268123°89km/h10891m3.8m/s-51.6°C0%0hPa0V00:00:0000:00:0000:00:00
WB7NNF2026-08-31 05:42:5747.56149-117.22919125°91km/h10809m3.2m/s-50.9°C0%0hPa0V00:00:0000:00:0000:00:00
WB7NNF2026-08-31 05:42:3647.56401-117.23535123°99km/h10728m5.2m/s-50.2°C0%0hPa0V00:00:0000:00:0000:00:00
WB7NNF2026-08-31 05:42:1647.56681-117.24186120°102km/h10645m3.9m/s-49.5°C0%0hPa0V00:00:0000:00:0000:00:00
WB7NNF2026-08-31 05:41:5547.56937-117.24819123°99km/h10563m4.4m/s-48.8°C0%0hPa0V00:00:0000:00:0000:00:00
WB7NNF2026-08-31 05:41:3547.57204-117.25491119°108km/h10480m3.4m/s-48.0°C0%0hPa0V00:00:0000:00:0000:00:00
WB7NNF2026-08-31 05:41:1447.57448-117.26139125°106km/h10404m4.5m/s-47.4°C0%0hPa0V00:00:0000:00:0000:00:00
WB7NNF2026-08-31 05:40:5447.57718-117.26815122°102km/h10324m4.5m/s-46.8°C0%0hPa0V00:00:0000:00:0000:00:00
WB7NNF2026-08-31 05:40:3347.57965-117.27475120°93km/h10242m3.3m/s-46.1°C0%0hPa0V00:00:0000:00:0000:00:00
WB7NNF2026-08-31 05:40:1147.58196-117.28149122°102km/h10162m4.2m/s-45.4°C0%0hPa0V00:00:0000:00:0000:00:00
WB7NNF2026-08-31 05:39:4947.58416-117.28857123°84km/h10068m5.2m/s-44.5°C0%0hPa0V00:00:0000:00:0000:00:00
WB7NNF2026-08-31 05:39:2647.58632-117.29627114°88km/h9968m4.4m/s-43.7°C0%0hPa0V00:00:0000:00:0000:00:00
WB7NNF2026-08-31 05:39:0647.58819-117.30296108°97km/h9891m3.2m/s-43.2°C0%0hPa0V00:00:0000:00:0000:00:00
WB7NNF2026-08-31 05:38:4247.59023-117.31089107°91km/h9803m3.9m/s-42.4°C0%0hPa0V00:00:0000:00:0000:00:00
WB7NNF2026-08-31 05:38:2147.59217-117.31808109°95km/h9724m4.0m/s-41.7°C0%0hPa0V00:00:0000:00:0000:00:00
WB7NNF2026-08-31 05:37:5847.59422-117.32614118°100km/h9630m3.2m/s-40.9°C0%0hPa0V00:00:0000:00:0000:00:00
WB7NNF2026-08-31 05:37:3847.59638-117.33324113°91km/h9543m4.2m/s-40.1°C0%0hPa0V00:00:0000:00:0000:00:00
WB7NNF2026-08-31 05:37:1247.59904-117.34234111°88km/h9433m4.5m/s-39.1°C0%0hPa0V00:00:0000:00:0000:00:00
WB7NNF2026-08-31 05:36:4947.60108-117.35014114°102km/h9348m4.4m/s-38.6°C0%0hPa0V00:00:0000:00:0000:00:00
WB7NNF2026-08-31 05:36:1947.60431-117.36053118°99km/h9232m4.0m/s-38.1°C0%0hPa0V00:00:0000:00:0000:00:00
WB7NNF2026-08-31 05:35:5947.60650-117.36749112°93km/h9148m5.1m/s-37.5°C0%0hPa0V00:00:0000:00:0000:00:00
WB7NNF2026-08-31 05:35:3847.60834-117.37382105°100km/h9064m3.6m/s-36.8°C0%0hPa0V00:00:0000:00:0000:00:00
WB7NNF2026-08-31 05:35:1847.60992-117.38017115°82km/h8963m5.1m/s-36.1°C0%0hPa0V00:00:0000:00:0000:00:00
WB7NNF2026-08-31 05:34:5747.61123-117.38582114°86km/h8880m3.0m/s-35.8°C0%0hPa0V00:00:0000:00:0000:00:00
WB7NNF2026-08-31 05:34:3747.61258-117.39175106°84km/h8800m3.9m/s-35.2°C0%0hPa0V00:00:0000:00:0000:00:00
WB7NNF2026-08-31 05:34:1647.61394-117.39731118°84km/h8727m3.1m/s-34.6°C0%0hPa0V00:00:0000:00:0000:00:00
WB7NNF2026-08-31 05:33:5647.61555-117.40288116°82km/h8651m4.4m/s-34.0°C0%0hPa0V00:00:0000:00:0000:00:00
WB7NNF2026-08-31 05:33:3547.61697-117.40827108°75km/h8578m3.1m/s-33.4°C0%0hPa0V00:00:0000:00:0000:00:00
WB7NNF2026-08-31 05:33:1547.61834-117.41360114°69km/h8498m4.2m/s-32.8°C0%0hPa0V00:00:0000:00:0000:00:00
WB7NNF2026-08-31 05:32:5547.61976-117.41919109°75km/h8422m4.4m/s-32.2°C0%0hPa0V00:00:0000:00:0000:00:00
WB7NNF2026-08-31 05:32:3447.62101-117.42446114°73km/h8350m4.6m/s-31.7°C0%0hPa0V00:00:0000:00:0000:00:00
WB7NNF2026-08-31 05:32:1347.62218-117.42971111°66km/h8267m5.0m/s-31.0°C0%0hPa0V00:00:0000:00:0000:00:00
WB7NNF2026-08-31 05:31:5247.62327-117.43453110°60km/h8188m4.3m/s-30.4°C0%0hPa0V00:00:0000:00:0000:00:00
WB7NNF2026-08-31 05:31:3247.62443-117.43977103°62km/h8110m3.9m/s-29.9°C0%0hPa0V00:00:0000:00:0000:00:00
WB7NNF2026-08-31 05:30:5147.62621-117.45077106°77km/h7952m4.0m/s-29.1°C0%0hPa0V00:00:0000:00:0000:00:00
WB7NNF2026-08-31 05:30:3047.62695-117.4560696°75km/h7876m4.4m/s-28.4°C0%0hPa0V00:00:0000:00:0000:00:00
WB7NNF2026-08-31 05:30:1047.62762-117.46161116°77km/h7791m4.4m/s-27.8°C0%0hPa0V00:00:0000:00:0000:00:00
WB7NNF2026-08-31 05:29:4947.62853-117.46643104°60km/h7705m3.1m/s-27.0°C0%0hPa0V00:00:0000:00:0000:00:00
WB7NNF2026-08-31 05:29:2947.62947-117.47159100°73km/h7618m4.2m/s-26.3°C0%0hPa0V00:00:0000:00:0000:00:00
WB7NNF2026-08-31 05:29:0347.63055-117.47770113°71km/h7517m3.7m/s-25.4°C0%0hPa0V00:00:0000:00:0000:00:00
WB7NNF2026-08-31 05:28:4047.63163-117.48301106°71km/h7398m5.3m/s-24.3°C0%0hPa0V00:00:0000:00:0000:00:00
WB7NNF2026-08-31 05:28:2047.63247-117.48787100°60km/h7306m3.6m/s-23.6°C0%0hPa0V00:00:0000:00:0000:00:00
WB7NNF2026-08-31 05:27:5847.63340-117.49268103°64km/h7224m4.0m/s-22.9°C0%0hPa0V00:00:0000:00:0000:00:00
WB7NNF2026-08-31 05:27:3747.63445-117.49701109°60km/h7146m3.3m/s-22.3°C0%0hPa0V00:00:0000:00:0000:00:00
WB7NNF2026-08-31 05:27:1647.63548-117.50116117°64km/h7075m3.2m/s-21.6°C0%0hPa0V00:00:0000:00:0000:00:00
WB7NNF2026-08-31 05:26:3247.63844-117.50985123°58km/h6908m3.4m/s-20.3°C0%0hPa0V00:00:0000:00:0000:00:00
WB7NNF2026-08-31 05:26:0947.64037-117.51427120°60km/h6817m3.6m/s-19.7°C0%0hPa0V00:00:0000:00:0000:00:00
WB7NNF2026-08-31 05:25:4747.64221-117.51819121°49km/h6728m4.5m/s-20.6°C0%0hPa0V00:00:0000:00:0000:00:00
WB7NNF2026-08-31 05:25:1347.64458-117.52426131°44km/h6586m5.0m/s-20.7°C0%0hPa0V00:00:0000:00:0000:00:00


GPX KML Map

© wettersonde.net (DO2JMG) - 2026  -  -